sensor_id;sensor_type;location;lat;lon;timestamp;P1;durP1;ratioP1;P2;durP2;ratioP2
37485;SDS011;23341;50.296;18.960;2023-04-21T00:02:15;19.77;;;11.43;;
37485;SDS011;23341;50.296;18.960;2023-04-21T00:07:20;23.55;;;11.60;;
37485;SDS011;23341;50.296;18.960;2023-04-21T00:12:26;23.83;;;11.90;;
37485;SDS011;23341;50.296;18.960;2023-04-21T00:17:30;28.83;;;12.10;;
37485;SDS011;23341;50.296;18.960;2023-04-21T00:22:34;29.52;;;12.50;;
37485;SDS011;23341;50.296;18.960;2023-04-21T00:27:40;20.60;;;12.88;;
37485;SDS011;23341;50.296;18.960;2023-04-21T00:32:44;27.27;;;13.20;;
37485;SDS011;23341;50.296;18.960;2023-04-21T00:37:49;29.00;;;14.60;;
37485;SDS011;23341;50.296;18.960;2023-04-21T00:42:55;21.92;;;12.88;;
37485;SDS011;23341;50.296;18.960;2023-04-21T00:48:03;23.33;;;12.50;;
37485;SDS011;23341;50.296;18.960;2023-04-21T00:53:07;23.90;;;13.23;;
37485;SDS011;23341;50.296;18.960;2023-04-21T00:58:13;26.10;;;12.38;;
37485;SDS011;23341;50.296;18.960;2023-04-21T01:03:17;25.13;;;12.05;;
37485;SDS011;23341;50.296;18.960;2023-04-21T01:08:22;27.40;;;14.65;;
37485;SDS011;23341;50.296;18.960;2023-04-21T01:13:28;22.25;;;13.13;;
37485;SDS011;23341;50.296;18.960;2023-04-21T01:18:32;18.88;;;11.43;;
37485;SDS011;23341;50.296;18.960;2023-04-21T01:23:42;22.67;;;10.63;;
37485;SDS011;23341;50.296;18.960;2023-04-21T01:28:46;26.60;;;13.37;;
37485;SDS011;23341;50.296;18.960;2023-04-21T01:33:51;25.48;;;11.45;;
37485;SDS011;23341;50.296;18.960;2023-04-21T01:38:57;28.50;;;15.30;;
37485;SDS011;23341;50.296;18.960;2023-04-21T01:44:04;26.60;;;11.15;;
37485;SDS011;23341;50.296;18.960;2023-04-21T01:49:08;22.20;;;12.55;;
37485;SDS011;23341;50.296;18.960;2023-04-21T01:54:14;22.30;;;12.02;;
37485;SDS011;23341;50.296;18.960;2023-04-21T01:59:18;28.33;;;13.68;;
37485;SDS011;23341;50.296;18.960;2023-04-21T02:04:23;25.17;;;13.70;;
37485;SDS011;23341;50.296;18.960;2023-04-21T02:09:29;28.95;;;13.50;;
37485;SDS011;23341;50.296;18.960;2023-04-21T02:14:35;28.10;;;14.15;;
37485;SDS011;23341;50.296;18.960;2023-04-21T02:19:41;27.20;;;13.68;;
37485;SDS011;23341;50.296;18.960;2023-04-21T02:24:47;27.65;;;14.75;;
37485;SDS011;23341;50.296;18.960;2023-04-21T02:29:53;19.08;;;12.90;;
37485;SDS011;23341;50.296;18.960;2023-04-21T02:34:58;30.38;;;15.38;;
37485;SDS011;23341;50.296;18.960;2023-04-21T02:40:04;23.13;;;13.30;;
37485;SDS011;23341;50.296;18.960;2023-04-21T02:45:10;33.47;;;18.20;;
37485;SDS011;23341;50.296;18.960;2023-04-21T02:50:14;36.22;;;16.52;;
37485;SDS011;23341;50.296;18.960;2023-04-21T02:55:20;23.08;;;13.18;;
37485;SDS011;23341;50.296;18.960;2023-04-21T03:00:24;26.27;;;12.40;;
37485;SDS011;23341;50.296;18.960;2023-04-21T03:05:29;24.85;;;11.93;;
37485;SDS011;23341;50.296;18.960;2023-04-21T03:10:36;33.70;;;14.65;;
37485;SDS011;23341;50.296;18.960;2023-04-21T03:15:41;22.45;;;14.65;;
37485;SDS011;23341;50.296;18.960;2023-04-21T03:20:46;27.98;;;14.40;;
37485;SDS011;23341;50.296;18.960;2023-04-21T03:25:52;26.88;;;14.02;;
37485;SDS011;23341;50.296;18.960;2023-04-21T03:30:56;25.92;;;15.23;;
37485;SDS011;23341;50.296;18.960;2023-04-21T03:36:01;27.70;;;14.13;;
37485;SDS011;23341;50.296;18.960;2023-04-21T03:41:06;23.05;;;13.52;;
37485;SDS011;23341;50.296;18.960;2023-04-21T03:46:20;35.97;;;15.40;;
37485;SDS011;23341;50.296;18.960;2023-04-21T03:51:24;44.83;;;21.50;;
37485;SDS011;23341;50.296;18.960;2023-04-21T03:56:31;53.40;;;24.80;;
37485;SDS011;23341;50.296;18.960;2023-04-21T04:01:35;175.90;;;76.82;;
37485;SDS011;23341;50.296;18.960;2023-04-21T04:06:39;70.50;;;31.65;;
37485;SDS011;23341;50.296;18.960;2023-04-21T04:11:45;84.00;;;34.55;;
37485;SDS011;23341;50.296;18.960;2023-04-21T04:16:49;68.50;;;29.00;;
37485;SDS011;23341;50.296;18.960;2023-04-21T04:21:54;40.47;;;20.23;;
37485;SDS011;23341;50.296;18.960;2023-04-21T04:26:59;38.70;;;22.00;;
37485;SDS011;23341;50.296;18.960;2023-04-21T04:32:04;50.85;;;20.25;;
37485;SDS011;23341;50.296;18.960;2023-04-21T04:37:12;53.50;;;23.85;;
37485;SDS011;23341;50.296;18.960;2023-04-21T04:42:18;41.45;;;18.77;;
37485;SDS011;23341;50.296;18.960;2023-04-21T04:47:22;51.25;;;24.25;;
37485;SDS011;23341;50.296;18.960;2023-04-21T04:52:27;33.05;;;18.60;;
37485;SDS011;23341;50.296;18.960;2023-04-21T04:57:33;42.92;;;16.65;;
37485;SDS011;23341;50.296;18.960;2023-04-21T05:02:38;99.55;;;44.70;;
37485;SDS011;23341;50.296;18.960;2023-04-21T05:07:42;78.85;;;34.42;;
37485;SDS011;23341;50.296;18.960;2023-04-21T05:12:48;61.22;;;25.40;;
37485;SDS011;23341;50.296;18.960;2023-04-21T05:17:53;49.03;;;22.08;;
37485;SDS011;23341;50.296;18.960;2023-04-21T05:22:58;32.05;;;16.38;;
37485;SDS011;23341;50.296;18.960;2023-04-21T05:28:04;21.67;;;12.90;;
37485;SDS011;23341;50.296;18.960;2023-04-21T05:33:08;25.40;;;14.20;;
37485;SDS011;23341;50.296;18.960;2023-04-21T05:38:13;59.67;;;29.98;;
37485;SDS011;23341;50.296;18.960;2023-04-21T05:43:19;42.75;;;22.42;;
37485;SDS011;23341;50.296;18.960;2023-04-21T05:48:24;32.80;;;17.88;;
37485;SDS011;23341;50.296;18.960;2023-04-21T05:53:28;246.32;;;91.10;;
37485;SDS011;23341;50.296;18.960;2023-04-21T05:58:34;540.85;;;193.38;;
37485;SDS011;23341;50.296;18.960;2023-04-21T06:03:38;260.40;;;88.78;;
37485;SDS011;23341;50.296;18.960;2023-04-21T06:08:43;361.17;;;114.65;;
37485;SDS011;23341;50.296;18.960;2023-04-21T06:13:49;169.43;;;58.92;;
37485;SDS011;23341;50.296;18.960;2023-04-21T06:18:55;234.40;;;86.80;;
37485;SDS011;23341;50.296;18.960;2023-04-21T06:24:00;47.45;;;22.98;;
37485;SDS011;23341;50.296;18.960;2023-04-21T06:29:09;251.93;;;94.10;;
37485;SDS011;23341;50.296;18.960;2023-04-21T06:34:13;170.98;;;68.18;;
37485;SDS011;23341;50.296;18.960;2023-04-21T06:39:18;186.52;;;72.93;;
37485;SDS011;23341;50.296;18.960;2023-04-21T06:44:24;101.63;;;41.63;;
37485;SDS011;23341;50.296;18.960;2023-04-21T06:49:28;153.77;;;64.95;;
37485;SDS011;23341;50.296;18.960;2023-04-21T06:54:32;81.38;;;33.17;;
37485;SDS011;23341;50.296;18.960;2023-04-21T06:59:38;111.43;;;54.88;;
37485;SDS011;23341;50.296;18.960;2023-04-21T07:04:42;130.07;;;65.57;;
37485;SDS011;23341;50.296;18.960;2023-04-21T07:09:47;107.65;;;59.72;;
37485;SDS011;23341;50.296;18.960;2023-04-21T07:14:53;137.00;;;74.57;;
37485;SDS011;23341;50.296;18.960;2023-04-21T07:19:57;205.35;;;112.93;;
37485;SDS011;23341;50.296;18.960;2023-04-21T07:25:01;101.40;;;51.60;;
37485;SDS011;23341;50.296;18.960;2023-04-21T07:30:09;69.88;;;39.45;;
37485;SDS011;23341;50.296;18.960;2023-04-21T07:35:14;19.20;;;8.68;;
37485;SDS011;23341;50.296;18.960;2023-04-21T07:40:19;38.40;;;20.25;;
37485;SDS011;23341;50.296;18.960;2023-04-21T07:45:25;20.90;;;11.45;;
37485;SDS011;23341;50.296;18.960;2023-04-21T07:50:29;43.17;;;23.45;;
37485;SDS011;23341;50.296;18.960;2023-04-21T07:55:34;40.63;;;22.05;;
37485;SDS011;23341;50.296;18.960;2023-04-21T08:00:40;19.15;;;10.02;;
37485;SDS011;23341;50.296;18.960;2023-04-21T08:12:52;15.57;;;6.45;;
37485;SDS011;23341;50.296;18.960;2023-04-21T08:17:58;19.92;;;11.15;;
37485;SDS011;23341;50.296;18.960;2023-04-21T08:23:07;34.08;;;20.75;;
37485;SDS011;23341;50.296;18.960;2023-04-21T08:28:36;47.45;;;29.30;;
37485;SDS011;23341;50.296;18.960;2023-04-21T08:33:42;28.88;;;12.82;;
37485;SDS011;23341;50.296;18.960;2023-04-21T08:39:08;22.20;;;10.65;;
37485;SDS011;23341;50.296;18.960;2023-04-21T08:44:19;26.38;;;15.23;;
37485;SDS011;23341;50.296;18.960;2023-04-21T08:49:55;11.13;;;8.20;;
37485;SDS011;23341;50.296;18.960;2023-04-21T08:55:01;10.40;;;8.00;;
37485;SDS011;23341;50.296;18.960;2023-04-21T09:00:15;15.77;;;9.93;;
37485;SDS011;23341;50.296;18.960;2023-04-21T09:11:45;14.80;;;9.32;;
37485;SDS011;23341;50.296;18.960;2023-04-21T09:18:15;13.95;;;7.32;;
37485;SDS011;23341;50.296;18.960;2023-04-21T09:23:21;21.75;;;15.25;;
37485;SDS011;23341;50.296;18.960;2023-04-21T09:28:27;22.45;;;7.45;;
37485;SDS011;23341;50.296;18.960;2023-04-21T09:33:34;8.20;;;6.22;;
37485;SDS011;23341;50.296;18.960;2023-04-21T09:38:59;12.13;;;6.35;;
37485;SDS011;23341;50.296;18.960;2023-04-21T09:50:45;8.35;;;7.47;;
37485;SDS011;23341;50.296;18.960;2023-04-21T09:55:53;10.48;;;7.03;;
37485;SDS011;23341;50.296;18.960;2023-04-21T10:01:01;13.40;;;8.82;;
37485;SDS011;23341;50.296;18.960;2023-04-21T10:12:50;13.00;;;5.82;;
37485;SDS011;23341;50.296;18.960;2023-04-21T10:18:09;8.43;;;5.57;;
37485;SDS011;23341;50.296;18.960;2023-04-21T10:29:13;8.10;;;6.35;;
37485;SDS011;23341;50.296;18.960;2023-04-21T10:34:19;9.85;;;4.68;;
37485;SDS011;23341;50.296;18.960;2023-04-21T10:39:26;7.88;;;4.90;;
37485;SDS011;23341;50.296;18.960;2023-04-21T10:51:05;10.48;;;4.70;;
37485;SDS011;23341;50.296;18.960;2023-04-21T10:56:10;14.57;;;7.35;;
37485;SDS011;23341;50.296;18.960;2023-04-21T11:08:27;6.18;;;4.55;;
37485;SDS011;23341;50.296;18.960;2023-04-21T11:13:32;11.02;;;5.65;;
37485;SDS011;23341;50.296;18.960;2023-04-21T11:18:37;6.57;;;4.80;;
37485;SDS011;23341;50.296;18.960;2023-04-21T11:23:51;5.85;;;4.93;;
37485;SDS011;23341;50.296;18.960;2023-04-21T11:34:45;11.85;;;6.45;;
37485;SDS011;23341;50.296;18.960;2023-04-21T11:39:56;5.50;;;4.85;;
37485;SDS011;23341;50.296;18.960;2023-04-21T11:51:36;4.65;;;4.05;;
37485;SDS011;23341;50.296;18.960;2023-04-21T11:56:45;7.90;;;4.60;;
37485;SDS011;23341;50.296;18.960;2023-04-21T12:01:50;6.90;;;4.32;;
37485;SDS011;23341;50.296;18.960;2023-04-21T12:13:28;9.45;;;5.03;;
37485;SDS011;23341;50.296;18.960;2023-04-21T12:18:34;4.75;;;4.28;;
37485;SDS011;23341;50.296;18.960;2023-04-21T12:23:39;6.57;;;5.95;;
37485;SDS011;23341;50.296;18.960;2023-04-21T12:41:33;4.90;;;4.40;;
37485;SDS011;23341;50.296;18.960;2023-04-21T12:46:37;5.88;;;4.57;;
37485;SDS011;23341;50.296;18.960;2023-04-21T12:51:42;6.22;;;4.63;;
37485;SDS011;23341;50.296;18.960;2023-04-21T12:56:48;9.52;;;8.20;;
37485;SDS011;23341;50.296;18.960;2023-04-21T13:01:53;21.83;;;13.32;;
37485;SDS011;23341;50.296;18.960;2023-04-21T13:06:58;4.10;;;3.45;;
37485;SDS011;23341;50.296;18.960;2023-04-21T13:12:04;11.55;;;6.28;;
37485;SDS011;23341;50.296;18.960;2023-04-21T13:17:08;5.38;;;3.70;;
37485;SDS011;23341;50.296;18.960;2023-04-21T13:22:14;7.55;;;4.00;;
37485;SDS011;23341;50.296;18.960;2023-04-21T13:27:19;6.57;;;5.35;;
37485;SDS011;23341;50.296;18.960;2023-04-21T13:32:24;5.10;;;4.10;;
37485;SDS011;23341;50.296;18.960;2023-04-21T13:37:28;6.22;;;3.70;;
37485;SDS011;23341;50.296;18.960;2023-04-21T13:42:34;4.30;;;3.20;;
37485;SDS011;23341;50.296;18.960;2023-04-21T13:47:39;4.75;;;3.92;;
37485;SDS011;23341;50.296;18.960;2023-04-21T13:52:43;28.38;;;18.65;;
37485;SDS011;23341;50.296;18.960;2023-04-21T13:57:49;8.82;;;5.28;;
37485;SDS011;23341;50.296;18.960;2023-04-21T14:02:54;9.32;;;4.60;;
37485;SDS011;23341;50.296;18.960;2023-04-21T14:07:59;4.68;;;3.45;;
37485;SDS011;23341;50.296;18.960;2023-04-21T14:13:04;4.80;;;3.25;;
37485;SDS011;23341;50.296;18.960;2023-04-21T14:18:08;3.17;;;2.75;;
37485;SDS011;23341;50.296;18.960;2023-04-21T14:23:13;9.13;;;3.33;;
37485;SDS011;23341;50.296;18.960;2023-04-21T14:28:19;5.55;;;2.88;;
37485;SDS011;23341;50.296;18.960;2023-04-21T14:33:23;13.77;;;11.00;;
37485;SDS011;23341;50.296;18.960;2023-04-21T14:38:28;5.82;;;4.95;;
37485;SDS011;23341;50.296;18.960;2023-04-21T14:43:33;4.95;;;3.42;;
37485;SDS011;23341;50.296;18.960;2023-04-21T14:48:38;4.50;;;3.22;;
37485;SDS011;23341;50.296;18.960;2023-04-21T14:53:43;5.07;;;3.35;;
37485;SDS011;23341;50.296;18.960;2023-04-21T14:58:49;3.75;;;3.42;;
37485;SDS011;23341;50.296;18.960;2023-04-21T15:03:54;6.53;;;4.05;;
37485;SDS011;23341;50.296;18.960;2023-04-21T15:09:01;4.68;;;3.78;;
37485;SDS011;23341;50.296;18.960;2023-04-21T15:14:08;4.80;;;3.20;;
37485;SDS011;23341;50.296;18.960;2023-04-21T15:19:12;4.03;;;3.63;;
37485;SDS011;23341;50.296;18.960;2023-04-21T15:24:17;4.03;;;3.53;;
37485;SDS011;23341;50.296;18.960;2023-04-21T15:29:22;24.52;;;13.70;;
37485;SDS011;23341;50.296;18.960;2023-04-21T15:34:27;40.70;;;18.73;;
37485;SDS011;23341;50.296;18.960;2023-04-21T15:39:31;14.05;;;8.85;;
37485;SDS011;23341;50.296;18.960;2023-04-21T15:44:37;5.72;;;3.58;;
37485;SDS011;23341;50.296;18.960;2023-04-21T15:49:42;6.30;;;5.22;;
37485;SDS011;23341;50.296;18.960;2023-04-21T15:54:46;6.53;;;4.05;;
37485;SDS011;23341;50.296;18.960;2023-04-21T15:59:54;11.23;;;6.45;;
37485;SDS011;23341;50.296;18.960;2023-04-21T16:04:59;4.82;;;4.13;;
37485;SDS011;23341;50.296;18.960;2023-04-21T16:10:04;5.10;;;3.65;;
37485;SDS011;23341;50.296;18.960;2023-04-21T16:15:11;9.82;;;4.88;;
37485;SDS011;23341;50.296;18.960;2023-04-21T16:20:25;8.80;;;4.38;;
37485;SDS011;23341;50.296;18.960;2023-04-21T16:25:30;20.13;;;12.48;;
37485;SDS011;23341;50.296;18.960;2023-04-21T16:30:36;24.90;;;14.20;;
37485;SDS011;23341;50.296;18.960;2023-04-21T16:35:45;29.40;;;13.55;;
37485;SDS011;23341;50.296;18.960;2023-04-21T16:40:49;64.57;;;28.75;;
37485;SDS011;23341;50.296;18.960;2023-04-21T16:45:55;27.58;;;14.57;;
37485;SDS011;23341;50.296;18.960;2023-04-21T16:51:00;9.23;;;7.18;;
37485;SDS011;23341;50.296;18.960;2023-04-21T16:56:05;6.75;;;4.93;;
37485;SDS011;23341;50.296;18.960;2023-04-21T17:01:11;7.35;;;5.15;;
37485;SDS011;23341;50.296;18.960;2023-04-21T17:06:16;4.63;;;4.18;;
37485;SDS011;23341;50.296;18.960;2023-04-21T17:11:22;10.68;;;5.30;;
37485;SDS011;23341;50.296;18.960;2023-04-21T17:16:28;6.40;;;4.93;;
37485;SDS011;23341;50.296;18.960;2023-04-21T17:21:33;7.70;;;5.18;;
37485;SDS011;23341;50.296;18.960;2023-04-21T17:26:37;16.00;;;8.93;;
37485;SDS011;23341;50.296;18.960;2023-04-21T17:31:43;11.82;;;6.32;;
37485;SDS011;23341;50.296;18.960;2023-04-21T17:36:48;12.05;;;6.75;;
37485;SDS011;23341;50.296;18.960;2023-04-21T17:41:52;17.08;;;8.55;;
37485;SDS011;23341;50.296;18.960;2023-04-21T17:46:58;14.73;;;7.68;;
37485;SDS011;23341;50.296;18.960;2023-04-21T17:52:04;13.80;;;8.07;;
37485;SDS011;23341;50.296;18.960;2023-04-21T17:57:11;15.93;;;8.48;;
37485;SDS011;23341;50.296;18.960;2023-04-21T18:02:17;18.42;;;10.25;;
37485;SDS011;23341;50.296;18.960;2023-04-21T18:07:21;18.70;;;10.30;;
37485;SDS011;23341;50.296;18.960;2023-04-21T18:12:26;24.15;;;11.57;;
37485;SDS011;23341;50.296;18.960;2023-04-21T18:17:32;23.00;;;14.10;;
37485;SDS011;23341;50.296;18.960;2023-04-21T18:22:38;28.42;;;12.55;;
37485;SDS011;23341;50.296;18.960;2023-04-21T18:27:44;24.80;;;15.07;;
37485;SDS011;23341;50.296;18.960;2023-04-21T18:32:50;39.45;;;21.08;;
37485;SDS011;23341;50.296;18.960;2023-04-21T18:37:54;52.72;;;24.95;;
37485;SDS011;23341;50.296;18.960;2023-04-21T18:42:59;32.85;;;16.17;;
37485;SDS011;23341;50.296;18.960;2023-04-21T18:48:05;22.17;;;9.90;;
37485;SDS011;23341;50.296;18.960;2023-04-21T18:53:09;33.22;;;16.52;;
37485;SDS011;23341;50.296;18.960;2023-04-21T18:58:14;39.47;;;18.90;;
37485;SDS011;23341;50.296;18.960;2023-04-21T19:03:20;18.95;;;10.60;;
37485;SDS011;23341;50.296;18.960;2023-04-21T19:13:44;19.90;;;11.15;;
37485;SDS011;23341;50.296;18.960;2023-04-21T19:18:51;26.30;;;12.45;;
37485;SDS011;23341;50.296;18.960;2023-04-21T19:23:55;47.58;;;17.88;;
37485;SDS011;23341;50.296;18.960;2023-04-21T19:28:59;54.15;;;22.45;;
37485;SDS011;23341;50.296;18.960;2023-04-21T19:34:05;57.20;;;23.25;;
37485;SDS011;23341;50.296;18.960;2023-04-21T19:39:09;22.92;;;12.75;;
37485;SDS011;23341;50.296;18.960;2023-04-21T19:44:14;25.50;;;12.82;;
37485;SDS011;23341;50.296;18.960;2023-04-21T19:49:20;32.92;;;17.52;;
37485;SDS011;23341;50.296;18.960;2023-04-21T19:54:25;16.77;;;11.30;;
37485;SDS011;23341;50.296;18.960;2023-04-21T19:59:29;24.98;;;14.05;;
37485;SDS011;23341;50.296;18.960;2023-04-21T20:04:37;26.52;;;14.40;;
37485;SDS011;23341;50.296;18.960;2023-04-21T20:09:42;36.95;;;19.25;;
37485;SDS011;23341;50.296;18.960;2023-04-21T20:14:46;30.50;;;15.15;;
37485;SDS011;23341;50.296;18.960;2023-04-21T20:19:52;71.57;;;32.60;;
37485;SDS011;23341;50.296;18.960;2023-04-21T20:24:56;46.38;;;22.63;;
37485;SDS011;23341;50.296;18.960;2023-04-21T20:30:00;33.25;;;17.38;;
37485;SDS011;23341;50.296;18.960;2023-04-21T20:35:07;39.10;;;19.90;;
37485;SDS011;23341;50.296;18.960;2023-04-21T20:40:13;73.45;;;26.90;;
37485;SDS011;23341;50.296;18.960;2023-04-21T20:45:20;43.28;;;19.35;;
37485;SDS011;23341;50.296;18.960;2023-04-21T20:50:26;48.40;;;21.63;;
37485;SDS011;23341;50.296;18.960;2023-04-21T20:55:30;92.35;;;38.88;;
37485;SDS011;23341;50.296;18.960;2023-04-21T21:00:34;129.85;;;53.78;;
37485;SDS011;23341;50.296;18.960;2023-04-21T21:05:40;142.13;;;62.20;;
37485;SDS011;23341;50.296;18.960;2023-04-21T21:10:44;163.65;;;76.10;;
37485;SDS011;23341;50.296;18.960;2023-04-21T21:15:49;58.42;;;31.90;;
37485;SDS011;23341;50.296;18.960;2023-04-21T21:20:55;65.57;;;31.35;;
37485;SDS011;23341;50.296;18.960;2023-04-21T21:25:59;43.05;;;20.65;;
37485;SDS011;23341;50.296;18.960;2023-04-21T21:31:03;185.82;;;61.13;;
37485;SDS011;23341;50.296;18.960;2023-04-21T21:36:09;56.67;;;22.65;;
37485;SDS011;23341;50.296;18.960;2023-04-21T21:41:14;54.50;;;23.92;;
37485;SDS011;23341;50.296;18.960;2023-04-21T21:46:19;159.70;;;60.30;;
37485;SDS011;23341;50.296;18.960;2023-04-21T21:51:26;48.47;;;24.60;;
37485;SDS011;23341;50.296;18.960;2023-04-21T21:56:31;47.65;;;21.88;;
37485;SDS011;23341;50.296;18.960;2023-04-21T22:01:35;67.45;;;27.27;;
37485;SDS011;23341;50.296;18.960;2023-04-21T22:06:41;120.97;;;45.33;;
37485;SDS011;23341;50.296;18.960;2023-04-21T22:11:46;96.88;;;36.78;;
37485;SDS011;23341;50.296;18.960;2023-04-21T22:16:51;56.55;;;22.70;;
37485;SDS011;23341;50.296;18.960;2023-04-21T22:21:57;50.70;;;23.20;;
37485;SDS011;23341;50.296;18.960;2023-04-21T22:27:01;190.98;;;71.55;;
37485;SDS011;23341;50.296;18.960;2023-04-21T22:32:05;329.88;;;119.60;;
37485;SDS011;23341;50.296;18.960;2023-04-21T22:37:11;281.55;;;101.72;;
37485;SDS011;23341;50.296;18.960;2023-04-21T22:42:16;219.52;;;79.80;;
37485;SDS011;23341;50.296;18.960;2023-04-21T22:47:20;379.42;;;152.18;;
37485;SDS011;23341;50.296;18.960;2023-04-21T22:52:26;247.23;;;90.18;;
37485;SDS011;23341;50.296;18.960;2023-04-21T22:57:30;361.77;;;134.73;;
37485;SDS011;23341;50.296;18.960;2023-04-21T23:02:35;164.10;;;63.50;;
37485;SDS011;23341;50.296;18.960;2023-04-21T23:07:41;140.95;;;51.58;;
37485;SDS011;23341;50.296;18.960;2023-04-21T23:12:46;55.70;;;24.05;;
37485;SDS011;23341;50.296;18.960;2023-04-21T23:17:50;100.55;;;36.03;;
37485;SDS011;23341;50.296;18.960;2023-04-21T23:22:56;37.88;;;18.13;;
37485;SDS011;23341;50.296;18.960;2023-04-21T23:28:00;34.60;;;17.42;;
37485;SDS011;23341;50.296;18.960;2023-04-21T23:33:05;53.95;;;21.83;;
37485;SDS011;23341;50.296;18.960;2023-04-21T23:38:10;24.80;;;13.90;;
37485;SDS011;23341;50.296;18.960;2023-04-21T23:43:15;33.45;;;13.55;;
37485;SDS011;23341;50.296;18.960;2023-04-21T23:48:19;21.60;;;12.77;;
37485;SDS011;23341;50.296;18.960;2023-04-21T23:53:25;25.17;;;14.55;;
37485;SDS011;23341;50.296;18.960;2023-04-21T23:58:29;47.95;;;24.13;;
